createdAt,value
2023-04-17T00:00:58.449Z,1.50
2023-04-17T00:02:02.512Z,1.40
2023-04-17T00:03:04.984Z,1.60
2023-04-17T00:04:11.402Z,1.60
2023-04-17T00:05:14.027Z,1.30
2023-04-17T00:06:16.446Z,1.60
2023-04-17T00:07:22.524Z,1.40
2023-04-17T00:08:24.979Z,1.40
2023-04-17T00:09:27.623Z,1.43
2023-04-17T00:10:30.524Z,1.47
2023-04-17T00:11:32.947Z,1.60
2023-04-17T00:12:35.872Z,1.60
2023-04-17T00:13:38.217Z,1.43
2023-04-17T00:14:40.461Z,1.40
2023-04-17T00:15:44.436Z,1.50
2023-04-17T00:16:46.763Z,1.40
2023-04-17T00:17:49.207Z,1.40
2023-04-17T00:18:51.830Z,1.30
2023-04-17T00:19:54.200Z,1.33
2023-04-17T00:20:57.137Z,1.63
2023-04-17T00:21:59.553Z,1.60
2023-04-17T00:23:02.218Z,1.30
2023-04-17T00:24:04.634Z,1.50
2023-04-17T00:25:07.668Z,1.50
2023-04-17T00:26:09.933Z,1.47
2023-04-17T00:27:12.817Z,1.30
2023-04-17T00:28:15.356Z,1.40
2023-04-17T00:29:17.886Z,1.20
2023-04-17T00:30:20.246Z,1.33
2023-04-17T00:31:22.917Z,1.67
2023-04-17T00:32:25.279Z,1.50
2023-04-17T00:33:27.816Z,1.27
2023-04-17T00:34:30.169Z,1.40
2023-04-17T00:35:32.538Z,1.63
2023-04-17T00:36:35.152Z,1.40
2023-04-17T00:37:37.410Z,1.43
2023-04-17T00:38:39.953Z,1.60
2023-04-17T00:39:42.365Z,1.50
2023-04-17T00:40:48.919Z,1.20
2023-04-17T00:41:51.293Z,1.60
2023-04-17T00:42:56.176Z,1.43
2023-04-17T00:43:58.789Z,1.47
2023-04-17T00:45:01.154Z,1.50
2023-04-17T00:46:05.760Z,1.43
2023-04-17T00:47:08.502Z,1.53
2023-04-17T00:48:13.342Z,1.20
2023-04-17T00:49:16.005Z,1.33
2023-04-17T00:50:19.218Z,1.50
2023-04-17T00:51:22.062Z,1.50
2023-04-17T00:52:29.965Z,1.60
2023-04-17T00:53:33.013Z,1.40
2023-04-17T00:54:36.558Z,1.53
2023-04-17T00:55:41.720Z,1.50
2023-04-17T00:56:45.721Z,1.47
2023-04-17T00:57:49.420Z,1.50
2023-04-17T00:58:52.064Z,1.40
2023-04-17T00:59:56.568Z,1.50
2023-04-17T01:00:59.838Z,1.40
2023-04-17T01:02:02.661Z,1.60
2023-04-17T01:03:05.745Z,1.40
2023-04-17T01:04:12.805Z,1.30
2023-04-17T01:05:15.353Z,1.40
2023-04-17T01:06:18.655Z,1.70
2023-04-17T01:07:21.199Z,1.70
2023-04-17T01:08:23.870Z,1.40
2023-04-17T01:09:26.419Z,1.43
2023-04-17T01:10:29.018Z,1.70
2023-04-17T01:11:31.294Z,1.50
2023-04-17T01:12:33.596Z,1.33
2023-04-17T01:13:44.289Z,1.50
2023-04-17T01:14:46.730Z,1.30
2023-04-17T01:15:49.108Z,1.20
2023-04-17T01:16:51.690Z,1.50
2023-04-17T01:17:54.147Z,1.30
2023-04-17T01:18:56.526Z,1.20
2023-04-17T01:19:59.490Z,1.50
2023-04-17T01:21:03.368Z,1.40
2023-04-17T01:22:05.637Z,1.47
2023-04-17T01:23:08.541Z,1.27
2023-04-17T01:24:11.018Z,1.20
2023-04-17T01:25:13.265Z,1.30
2023-04-17T01:26:23.848Z,1.43
2023-04-17T01:27:26.159Z,1.37
2023-04-17T01:28:28.468Z,1.40
2023-04-17T01:29:31.238Z,1.43
2023-04-17T01:30:35.378Z,1.30
2023-04-17T01:31:37.833Z,1.23
2023-04-17T01:32:40.159Z,1.40
2023-04-17T01:33:42.968Z,1.50
2023-04-17T01:34:45.334Z,1.27
2023-04-17T01:35:47.946Z,1.60
2023-04-17T01:36:50.268Z,1.70
2023-04-17T01:37:52.511Z,1.23
2023-04-17T01:38:54.836Z,1.40
2023-04-17T01:39:58.388Z,1.30
2023-04-17T01:41:08.154Z,1.23
2023-04-17T01:42:10.523Z,1.17
2023-04-17T01:43:12.855Z,1.27
2023-04-17T01:44:15.201Z,1.20
2023-04-17T01:45:17.555Z,1.57
2023-04-17T01:46:19.909Z,1.67
2023-04-17T01:47:22.287Z,1.30
2023-04-17T01:48:24.551Z,1.63
2023-04-17T01:49:27.015Z,1.27
2023-04-17T01:50:29.664Z,1.33
2023-04-17T01:51:32.200Z,1.50
2023-04-17T01:52:34.924Z,1.60
2023-04-17T01:53:38.026Z,1.30
2023-04-17T01:54:40.253Z,1.53
2023-04-17T01:55:42.777Z,1.43
2023-04-17T01:56:45.328Z,1.50
2023-04-17T01:57:49.201Z,1.43
2023-04-17T01:58:51.729Z,1.30
2023-04-17T01:59:53.987Z,1.43
2023-04-17T02:00:56.229Z,1.40
2023-04-17T02:01:58.588Z,1.40
2023-04-17T02:03:01.037Z,1.47
2023-04-17T02:04:03.670Z,1.50
2023-04-17T02:05:06.519Z,1.37
2023-04-17T02:06:08.895Z,1.23
2023-04-17T02:07:11.310Z,1.40
2023-04-17T02:08:14.321Z,1.33
2023-04-17T02:09:16.657Z,1.23
2023-04-17T02:10:19.291Z,1.23
2023-04-17T02:11:21.972Z,1.50
2023-04-17T02:12:24.221Z,1.60
2023-04-17T02:13:27.035Z,1.50
2023-04-17T02:14:31.489Z,1.40
2023-04-17T02:15:33.859Z,1.43
2023-04-17T02:16:37.892Z,1.40
2023-04-17T02:17:40.390Z,1.50
2023-04-17T02:18:42.793Z,1.33
2023-04-17T02:19:45.085Z,1.50
2023-04-17T02:20:47.414Z,1.30
2023-04-17T02:21:49.680Z,1.20
2023-04-17T02:22:51.977Z,1.27
2023-04-17T02:23:54.405Z,1.50
2023-04-17T02:24:56.935Z,1.23
2023-04-17T02:25:59.247Z,1.37
2023-04-17T02:27:02.055Z,1.23
2023-04-17T02:28:04.823Z,1.37
2023-04-17T02:29:07.176Z,1.20
2023-04-17T02:30:09.883Z,1.20
2023-04-17T02:31:12.560Z,1.27
2023-04-17T02:32:16.884Z,0.97
2023-04-17T02:33:19.135Z,1.30
2023-04-17T02:34:21.433Z,1.50
2023-04-17T02:35:32.190Z,1.60
2023-04-17T02:36:34.561Z,1.17
2023-04-17T02:37:37.321Z,1.20
2023-04-17T02:38:39.622Z,1.23
2023-04-17T02:39:41.957Z,1.30
2023-04-17T02:40:44.338Z,1.43
2023-04-17T02:41:46.622Z,1.60
2023-04-17T02:42:48.945Z,1.33
2023-04-17T02:43:51.680Z,1.40
2023-04-17T02:44:53.955Z,1.50
2023-04-17T02:45:56.245Z,1.40
2023-04-17T02:46:58.881Z,1.40
2023-04-17T02:48:02.273Z,1.20
2023-04-17T02:49:04.640Z,1.40
2023-04-17T02:50:07.554Z,1.33
2023-04-17T02:51:09.815Z,1.30
2023-04-17T02:52:12.142Z,1.30
2023-04-17T02:53:14.486Z,1.40
2023-04-17T02:54:16.750Z,1.50
2023-04-17T02:55:19.142Z,1.20
2023-04-17T02:56:21.494Z,1.50
2023-04-17T02:57:24.384Z,1.27
2023-04-17T02:58:26.665Z,1.37
2023-04-17T02:59:28.914Z,1.30
2023-04-17T03:00:31.167Z,1.47
2023-04-17T03:01:34.075Z,1.20
2023-04-17T03:02:36.690Z,1.43
2023-04-17T03:03:42.039Z,1.37
2023-04-17T03:04:44.583Z,1.30
2023-04-17T03:05:46.969Z,1.27
2023-04-17T03:06:49.188Z,1.47
2023-04-17T03:07:52.071Z,1.40
2023-04-17T03:08:54.264Z,1.50
2023-04-17T03:09:57.646Z,1.20
2023-04-17T03:10:59.896Z,1.50
2023-04-17T03:12:02.236Z,1.33
2023-04-17T03:13:04.579Z,1.50
2023-04-17T03:14:06.910Z,1.30
2023-04-17T03:15:10.010Z,1.20
2023-04-17T03:16:12.304Z,1.37
2023-04-17T03:17:15.002Z,1.40
2023-04-17T03:18:17.253Z,1.50
2023-04-17T03:19:19.504Z,1.60
2023-04-17T03:20:21.741Z,1.20
2023-04-17T03:21:24.299Z,1.10
2023-04-17T03:22:26.575Z,1.20
2023-04-17T03:23:28.871Z,1.30
2023-04-17T03:24:31.514Z,1.50
2023-04-17T03:25:34.191Z,1.30
2023-04-17T03:26:36.637Z,1.17
2023-04-17T03:27:38.916Z,1.47
2023-04-17T03:28:41.133Z,1.50
2023-04-17T03:29:43.381Z,1.30
2023-04-17T03:30:45.559Z,1.50
2023-04-17T03:31:47.777Z,1.47
2023-04-17T03:32:50.239Z,1.30
2023-04-17T03:33:52.540Z,1.23
2023-04-17T03:34:54.761Z,1.20
2023-04-17T03:35:56.936Z,1.40
2023-04-17T03:36:59.367Z,1.30
2023-04-17T03:38:01.909Z,1.10
2023-04-17T03:39:04.241Z,1.33
2023-04-17T03:40:07.392Z,1.20
2023-04-17T03:41:10.280Z,1.47
2023-04-17T03:42:14.531Z,1.10
2023-04-17T03:43:16.796Z,1.40
2023-04-17T03:44:19.157Z,1.30
2023-04-17T03:45:21.537Z,1.33
2023-04-17T03:46:23.850Z,1.50
2023-04-17T03:47:26.077Z,1.10
2023-04-17T03:48:28.293Z,1.40
2023-04-17T03:49:30.557Z,1.23
2023-04-17T03:50:32.946Z,1.60
2023-04-17T03:51:35.400Z,1.17
2023-04-17T03:52:37.733Z,1.13
2023-04-17T03:53:40.177Z,1.10
2023-04-17T03:54:42.495Z,1.13
2023-04-17T03:55:44.723Z,1.13
2023-04-17T03:56:46.991Z,1.10
2023-04-17T03:57:51.148Z,1.13
2023-04-17T03:58:53.376Z,1.40
2023-04-17T03:59:55.672Z,1.10
2023-04-17T04:00:58.511Z,1.50
2023-04-17T04:02:01.274Z,1.00
2023-04-17T04:03:04.560Z,1.20
2023-04-17T04:04:07.135Z,1.10
2023-04-17T04:05:09.817Z,1.50
2023-04-17T04:06:12.108Z,1.40
2023-04-17T04:07:14.330Z,1.10
2023-04-17T04:08:16.790Z,1.10
2023-04-17T04:09:19.123Z,1.00
2023-04-17T04:10:21.442Z,1.20
2023-04-17T04:11:24.110Z,1.10
2023-04-17T04:12:26.485Z,1.20
2023-04-17T04:13:28.721Z,1.27
2023-04-17T04:14:30.953Z,1.20
2023-04-17T04:15:33.185Z,1.00
2023-04-17T04:16:35.571Z,1.47
2023-04-17T04:17:37.872Z,1.27
2023-04-17T04:18:40.315Z,1.20
2023-04-17T04:19:43.569Z,1.30
2023-04-17T04:20:46.018Z,1.40
2023-04-17T04:21:48.299Z,1.00
2023-04-17T04:22:50.706Z,1.10
2023-04-17T04:23:52.993Z,1.23
2023-04-17T04:24:55.393Z,1.40
2023-04-17T04:25:57.957Z,1.20
2023-04-17T04:27:06.757Z,1.20
2023-04-17T04:28:10.548Z,1.30
2023-04-17T04:29:13.850Z,1.40
2023-04-17T04:30:17.036Z,1.10
2023-04-17T04:31:19.517Z,1.30
2023-04-17T04:32:21.933Z,1.20
2023-04-17T04:33:24.619Z,0.80
2023-04-17T04:34:29.579Z,1.30
2023-04-17T04:35:31.874Z,1.17
2023-04-17T04:36:36.310Z,1.00
2023-04-17T04:37:38.933Z,1.33
2023-04-17T04:38:41.204Z,1.03
2023-04-17T04:39:43.605Z,1.27
2023-04-17T04:40:52.151Z,1.37
2023-04-17T04:41:55.649Z,1.40
2023-04-17T04:42:58.706Z,1.33
2023-04-17T04:44:01.533Z,1.23
2023-04-17T04:45:04.790Z,1.30
2023-04-17T04:46:07.096Z,1.10
2023-04-17T04:47:09.429Z,1.20
2023-04-17T04:48:11.703Z,1.20
2023-04-17T04:49:14.290Z,1.20
2023-04-17T04:50:16.989Z,1.00
2023-04-17T04:51:19.559Z,1.20
2023-04-17T04:52:21.797Z,1.27
2023-04-17T04:53:24.767Z,1.10
2023-04-17T04:54:27.065Z,1.13
2023-04-17T04:55:30.715Z,1.40
2023-04-17T04:56:33.238Z,1.17
2023-04-17T04:57:36.309Z,1.30
2023-04-17T04:58:38.709Z,1.10
2023-04-17T04:59:40.981Z,1.20
2023-04-17T05:00:43.750Z,1.30
2023-04-17T05:01:46.302Z,1.10
2023-04-17T05:02:48.892Z,1.20
2023-04-17T05:03:51.457Z,1.30
2023-04-17T05:04:53.862Z,1.23
2023-04-17T05:05:56.164Z,1.40
2023-04-17T05:06:58.394Z,1.20
2023-04-17T05:08:00.712Z,1.40
2023-04-17T05:09:03.093Z,1.10
2023-04-17T05:10:06.685Z,1.03
2023-04-17T05:11:09.167Z,0.90
2023-04-17T05:12:11.475Z,1.40
2023-04-17T05:13:13.793Z,1.30
2023-04-17T05:14:16.104Z,1.30
2023-04-17T05:15:18.521Z,1.20
2023-04-17T05:16:21.300Z,1.10
2023-04-17T05:17:23.662Z,1.10
2023-04-17T05:18:26.549Z,1.33
2023-04-17T05:19:30.786Z,1.17
2023-04-17T05:20:33.140Z,1.30
2023-04-17T05:21:35.410Z,1.20
2023-04-17T05:22:37.958Z,1.20
2023-04-17T05:23:40.501Z,1.13
2023-04-17T05:24:42.779Z,1.40
2023-04-17T05:25:45.070Z,1.30
2023-04-17T05:26:47.385Z,1.20
2023-04-17T05:27:49.682Z,1.30
2023-04-17T05:28:51.901Z,1.33
2023-04-17T05:29:54.109Z,1.20
2023-04-17T05:30:57.008Z,1.30
2023-04-17T05:31:59.471Z,0.97
2023-04-17T05:33:02.052Z,1.50
2023-04-17T05:34:04.440Z,1.20
2023-04-17T05:35:07.380Z,1.20
2023-04-17T05:36:09.850Z,1.13
2023-04-17T05:37:12.366Z,1.30
2023-04-17T05:38:15.050Z,1.20
2023-04-17T05:39:18.217Z,1.30
2023-04-17T05:40:20.548Z,1.20
2023-04-17T05:41:22.867Z,1.33
2023-04-17T05:42:25.116Z,1.13
2023-04-17T05:43:27.851Z,1.10
2023-04-17T05:44:31.134Z,1.60
2023-04-17T05:45:33.431Z,1.53
2023-04-17T05:46:35.989Z,1.30
2023-04-17T05:47:38.675Z,1.60
2023-04-17T05:48:41.204Z,1.10
2023-04-17T05:49:44.292Z,1.43
2023-04-17T05:50:47.312Z,1.10
2023-04-17T05:51:49.928Z,1.23
2023-04-17T05:52:52.348Z,1.50
2023-04-17T05:53:54.530Z,1.50
2023-04-17T05:54:56.892Z,1.10
2023-04-17T05:55:59.267Z,1.50
2023-04-17T05:57:03.193Z,1.40
2023-04-17T05:58:16.843Z,1.17
2023-04-17T05:59:25.316Z,1.47
2023-04-17T06:00:27.903Z,1.43
2023-04-17T06:01:31.010Z,1.60
2023-04-17T06:02:33.423Z,1.40
2023-04-17T06:03:36.344Z,1.50
2023-04-17T06:04:39.113Z,1.23
2023-04-17T06:05:41.644Z,1.23
2023-04-17T06:06:44.016Z,1.13
2023-04-17T06:07:46.322Z,1.43
2023-04-17T06:08:48.845Z,1.30
2023-04-17T06:09:51.177Z,1.10
2023-04-17T06:10:53.754Z,1.10
2023-04-17T06:11:56.652Z,1.20
2023-04-17T06:13:00.612Z,1.40
2023-04-17T06:14:02.970Z,1.20
2023-04-17T06:15:08.956Z,1.20
2023-04-17T06:16:11.644Z,1.30
2023-04-17T06:17:14.035Z,1.20
2023-04-17T06:18:17.590Z,1.00
2023-04-17T06:19:20.819Z,1.33
2023-04-17T06:20:23.240Z,1.20
2023-04-17T06:21:26.305Z,1.40
2023-04-17T06:22:28.674Z,1.40
2023-04-17T06:23:31.494Z,1.40
2023-04-17T06:24:34.044Z,1.20
2023-04-17T06:25:36.392Z,1.30
2023-04-17T06:26:38.627Z,1.37
2023-04-17T06:27:40.952Z,1.40
2023-04-17T06:28:43.344Z,1.30
2023-04-17T06:29:45.559Z,1.30
2023-04-17T06:30:48.192Z,1.37
2023-04-17T06:31:50.770Z,1.33
2023-04-17T06:32:53.327Z,1.30
2023-04-17T06:33:56.014Z,1.20
2023-04-17T06:34:59.656Z,1.20
2023-04-17T06:36:03.178Z,1.33
2023-04-17T06:37:05.568Z,1.20
2023-04-17T06:38:08.969Z,1.10
2023-04-17T06:39:11.554Z,1.40
2023-04-17T06:40:14.164Z,1.57
2023-04-17T06:41:16.517Z,1.50
2023-04-17T06:42:20.656Z,1.70
2023-04-17T06:43:22.963Z,1.67
2023-04-17T06:44:25.229Z,1.10
2023-04-17T06:45:27.499Z,1.60
2023-04-17T06:46:29.734Z,1.57
2023-04-17T06:47:32.316Z,1.70
2023-04-17T06:48:34.689Z,1.50
2023-04-17T06:49:36.979Z,1.57
2023-04-17T06:50:39.347Z,1.77
2023-04-17T06:51:45.686Z,1.90
2023-04-17T06:52:47.949Z,2.00
2023-04-17T06:53:50.330Z,1.90
2023-04-17T06:54:54.614Z,1.97
2023-04-17T06:55:56.882Z,2.03
2023-04-17T06:56:59.193Z,1.73
2023-04-17T06:58:01.485Z,1.97
2023-04-17T06:59:03.774Z,1.97
2023-04-17T07:00:07.140Z,1.80
2023-04-17T07:01:10.234Z,1.70
2023-04-17T07:02:12.627Z,1.40
2023-04-17T07:03:15.142Z,1.90
2023-04-17T07:04:18.015Z,1.60
2023-04-17T07:05:20.366Z,1.60
2023-04-17T07:06:24.234Z,1.53
2023-04-17T07:07:27.961Z,1.37
2023-04-17T07:08:30.550Z,1.30
2023-04-17T07:09:32.844Z,1.50
2023-04-17T07:10:35.178Z,1.50
2023-04-17T07:11:37.434Z,1.43
2023-04-17T07:12:40.025Z,1.53
2023-04-17T07:13:42.303Z,1.40
2023-04-17T07:14:44.580Z,1.70
2023-04-17T07:15:53.637Z,1.60
2023-04-17T07:16:55.984Z,1.60
2023-04-17T07:17:58.486Z,1.53
2023-04-17T07:19:00.715Z,1.20
2023-04-17T07:20:05.515Z,1.47
2023-04-17T07:21:07.740Z,1.70
2023-04-17T07:22:10.217Z,1.80
2023-04-17T07:23:12.499Z,1.70
2023-04-17T07:24:14.990Z,1.70
2023-04-17T07:25:17.321Z,1.43
2023-04-17T07:26:19.639Z,1.60
2023-04-17T07:27:21.986Z,1.50
2023-04-17T07:28:25.074Z,1.80
2023-04-17T07:29:27.381Z,1.67
2023-04-17T07:30:29.624Z,1.33
2023-04-17T07:31:32.216Z,1.77
2023-04-17T07:32:36.134Z,1.60
2023-04-17T07:33:40.421Z,1.63
2023-04-17T07:34:42.915Z,1.60
2023-04-17T07:35:45.195Z,1.60
2023-04-17T07:36:49.758Z,1.50
2023-04-17T07:37:52.352Z,1.70
2023-04-17T07:38:54.623Z,1.70
2023-04-17T07:39:56.875Z,1.30
2023-04-17T07:40:59.898Z,1.40
2023-04-17T07:42:06.358Z,1.77
2023-04-17T07:43:08.697Z,1.60
2023-04-17T07:44:11.012Z,1.67
2023-04-17T07:45:13.299Z,1.70
2023-04-17T07:46:15.600Z,1.60
2023-04-17T07:47:17.907Z,1.87
2023-04-17T07:48:22.374Z,1.60
2023-04-17T07:49:24.706Z,1.60
2023-04-17T07:50:26.993Z,1.40
2023-04-17T07:51:31.611Z,2.07
2023-04-17T07:52:33.875Z,1.90
2023-04-17T07:53:37.330Z,1.73
2023-04-17T07:54:39.743Z,1.67
2023-04-17T07:55:42.043Z,1.83
2023-04-17T07:56:46.673Z,1.73
2023-04-17T07:57:51.579Z,2.40
2023-04-17T07:58:53.910Z,1.90
2023-04-17T07:59:56.671Z,1.90
2023-04-17T08:00:59.002Z,1.87
2023-04-17T08:02:01.419Z,2.07
2023-04-17T08:03:04.520Z,2.00
2023-04-17T08:04:07.032Z,1.83
2023-04-17T08:05:10.128Z,2.00
2023-04-17T08:06:12.401Z,1.90
2023-04-17T08:07:14.707Z,2.00
2023-04-17T08:08:16.957Z,1.97
2023-04-17T08:09:20.474Z,1.80
2023-04-17T08:10:22.775Z,1.50
2023-04-17T08:11:25.417Z,1.80
2023-04-17T08:12:27.704Z,2.00
2023-04-17T08:13:32.853Z,1.80
2023-04-17T08:14:35.214Z,1.73
2023-04-17T08:15:40.823Z,1.80
2023-04-17T08:16:43.548Z,1.83
2023-04-17T08:17:45.898Z,1.50
2023-04-17T08:18:48.365Z,1.70
2023-04-17T08:19:53.420Z,1.47
2023-04-17T08:20:55.884Z,1.63
2023-04-17T08:22:04.579Z,1.77
2023-04-17T08:23:07.247Z,1.93
2023-04-17T08:24:09.607Z,1.47
2023-04-17T08:25:13.389Z,1.60
2023-04-17T08:26:19.046Z,1.60
2023-04-17T08:27:21.768Z,1.70
2023-04-17T08:28:24.783Z,1.70
2023-04-17T08:29:27.640Z,1.70
2023-04-17T08:30:30.018Z,1.60
2023-04-17T08:31:34.442Z,1.40
2023-04-17T08:32:45.287Z,1.20
2023-04-17T08:33:47.534Z,1.70
2023-04-17T08:34:49.795Z,1.47
2023-04-17T08:35:52.273Z,1.73
2023-04-17T08:36:54.674Z,1.60
2023-04-17T08:37:59.894Z,1.40
2023-04-17T08:39:02.262Z,1.70
2023-04-17T08:40:08.939Z,1.17
2023-04-17T08:41:23.079Z,1.50
2023-04-17T08:42:25.997Z,1.53
2023-04-17T08:43:30.148Z,1.50
2023-04-17T08:44:32.442Z,1.50
2023-04-17T08:45:37.437Z,1.40
2023-04-17T08:46:40.718Z,1.20
2023-04-17T08:47:44.131Z,1.27
2023-04-17T08:48:46.818Z,1.80
2023-04-17T08:49:50.525Z,1.40
2023-04-17T08:50:53.810Z,1.40
2023-04-17T08:51:56.537Z,1.50
2023-04-17T08:52:58.869Z,1.40
2023-04-17T08:54:01.441Z,1.60
2023-04-17T08:55:03.879Z,1.57
2023-04-17T08:56:09.002Z,1.47
2023-04-17T08:57:11.603Z,1.50
2023-04-17T08:58:14.758Z,1.60
2023-04-17T08:59:18.255Z,1.50
2023-04-17T09:00:28.582Z,1.30
2023-04-17T09:01:31.102Z,1.60
2023-04-17T09:02:49.695Z,1.53
2023-04-17T09:03:52.690Z,1.70
2023-04-17T09:04:55.691Z,1.43
2023-04-17T09:05:58.236Z,1.33
2023-04-17T09:07:01.396Z,1.50
2023-04-17T09:08:20.690Z,1.40
2023-04-17T09:09:23.060Z,1.50
2023-04-17T09:10:39.086Z,1.30
2023-04-17T09:11:41.427Z,1.50
2023-04-17T09:13:00.647Z,1.30
2023-04-17T09:14:03.001Z,1.17
2023-04-17T09:15:18.253Z,1.60
2023-04-17T09:16:21.209Z,1.20
2023-04-17T09:17:23.540Z,1.30
2023-04-17T09:18:30.392Z,1.57
2023-04-17T09:19:35.113Z,1.30
2023-04-17T09:20:50.679Z,1.93
2023-04-17T09:21:54.958Z,2.10
2023-04-17T09:23:04.278Z,2.30
2023-04-17T09:24:07.484Z,2.50
2023-04-17T09:25:20.774Z,2.43
2023-04-17T09:26:25.361Z,2.30
2023-04-17T09:27:29.230Z,1.80
2023-04-17T09:28:35.341Z,1.90
2023-04-17T09:29:57.264Z,1.70
2023-04-17T09:31:01.228Z,1.70
2023-04-17T09:32:16.009Z,1.50
2023-04-17T09:33:18.282Z,1.67
2023-04-17T09:34:21.711Z,1.60
2023-04-17T09:35:28.191Z,1.50
2023-04-17T09:36:38.397Z,1.40
2023-04-17T09:37:55.001Z,1.37
2023-04-17T09:39:00.210Z,1.33
2023-04-17T09:40:07.925Z,1.30
2023-04-17T09:41:23.219Z,1.30
2023-04-17T09:42:26.364Z,1.10
2023-04-17T09:43:44.392Z,1.10
2023-04-17T09:44:46.980Z,1.50
2023-04-17T09:45:52.266Z,1.40
2023-04-17T09:46:55.634Z,1.27
2023-04-17T09:47:58.297Z,1.30
2023-04-17T09:49:10.584Z,1.20
2023-04-17T09:50:16.170Z,1.53
2023-04-17T09:51:18.462Z,1.30
2023-04-17T09:52:23.598Z,1.33
2023-04-17T09:53:26.149Z,1.13
2023-04-17T09:54:31.581Z,1.20
2023-04-17T09:55:36.620Z,1.40
2023-04-17T09:56:39.886Z,1.40
2023-04-17T09:57:44.663Z,1.40
2023-04-17T09:58:47.350Z,1.50
2023-04-17T09:59:49.929Z,1.20
2023-04-17T10:00:52.789Z,1.13
2023-04-17T10:01:55.684Z,1.33
2023-04-17T10:02:59.659Z,1.40
2023-04-17T10:04:03.404Z,1.20
2023-04-17T10:05:08.771Z,1.00
2023-04-17T10:06:11.042Z,1.33
2023-04-17T10:07:13.864Z,1.40
2023-04-17T10:08:16.884Z,1.20
2023-04-17T10:09:19.342Z,1.40
2023-04-17T10:10:33.244Z,1.20
2023-04-17T10:11:46.615Z,1.30
2023-04-17T10:12:50.460Z,1.47
2023-04-17T10:14:14.825Z,1.10
2023-04-17T10:15:18.603Z,1.30
2023-04-17T10:16:33.013Z,1.40
2023-04-17T10:17:35.492Z,1.43
2023-04-17T10:18:38.397Z,1.30
2023-04-17T10:19:40.609Z,1.20
2023-04-17T10:20:44.971Z,1.23
2023-04-17T10:21:50.731Z,1.37
2023-04-17T10:22:56.665Z,1.23
2023-04-17T10:23:59.406Z,1.00
2023-04-17T10:25:13.849Z,1.20
2023-04-17T10:26:28.264Z,1.20
2023-04-17T10:27:33.267Z,1.10
2023-04-17T10:28:49.341Z,1.10
2023-04-17T10:29:57.577Z,1.53
2023-04-17T10:31:01.346Z,1.43
2023-04-17T10:32:09.838Z,1.30
2023-04-17T10:33:20.820Z,0.90
2023-04-17T10:34:36.880Z,1.20
2023-04-17T10:35:39.444Z,1.07
2023-04-17T10:36:41.602Z,1.30
2023-04-17T10:37:52.302Z,1.17
2023-04-17T10:39:11.702Z,1.10
2023-04-17T10:40:21.045Z,1.20
2023-04-17T10:41:23.721Z,1.10
2023-04-17T10:42:28.616Z,1.27
2023-04-17T10:43:31.591Z,0.97
2023-04-17T10:44:36.054Z,1.20
2023-04-17T10:46:08.720Z,1.50
2023-04-17T10:47:14.129Z,1.27
2023-04-17T10:48:28.645Z,1.07
2023-04-17T10:49:48.902Z,1.13
2023-04-17T10:50:51.156Z,1.13
2023-04-17T10:51:53.513Z,1.10
2023-04-17T10:52:56.628Z,1.10
2023-04-17T10:54:00.732Z,1.43
2023-04-17T10:55:08.917Z,1.20
2023-04-17T10:56:17.242Z,1.13
2023-04-17T10:57:51.905Z,1.30
2023-04-17T10:58:57.711Z,0.87
2023-04-17T11:00:13.884Z,1.23
2023-04-17T11:01:16.504Z,1.00
2023-04-17T11:02:33.110Z,1.37
2023-04-17T11:03:39.522Z,1.37
2023-04-17T11:04:41.945Z,0.97
2023-04-17T11:05:47.659Z,0.90
2023-04-17T11:06:52.612Z,0.90
2023-04-17T11:07:55.344Z,1.10
2023-04-17T11:08:59.327Z,0.90
2023-04-17T11:10:06.445Z,1.20
2023-04-17T11:11:11.890Z,1.30
2023-04-17T11:12:14.205Z,1.03
2023-04-17T11:13:16.575Z,1.23
2023-04-17T11:14:23.282Z,1.27
2023-04-17T11:15:30.031Z,1.00
2023-04-17T11:16:32.346Z,1.10
2023-04-17T11:17:34.787Z,1.00
2023-04-17T11:18:38.213Z,1.17
2023-04-17T11:19:40.676Z,1.03
2023-04-17T11:20:42.840Z,1.13
2023-04-17T11:21:53.459Z,1.10
2023-04-17T11:22:56.463Z,1.00
2023-04-17T11:24:03.215Z,1.30
2023-04-17T11:25:06.199Z,1.27
2023-04-17T11:26:08.734Z,1.03
2023-04-17T11:27:11.250Z,1.27
2023-04-17T11:28:13.645Z,1.10
2023-04-17T11:29:17.107Z,1.03
2023-04-17T11:30:42.151Z,1.00
2023-04-17T11:31:46.219Z,1.30
2023-04-17T11:32:48.734Z,1.20
2023-04-17T11:33:51.587Z,1.37
2023-04-17T11:34:56.577Z,0.97
2023-04-17T11:35:58.916Z,1.20
2023-04-17T11:37:01.662Z,0.93
2023-04-17T11:38:21.395Z,1.10
2023-04-17T11:39:25.968Z,1.10
2023-04-17T11:40:30.827Z,1.17
2023-04-17T11:41:40.296Z,1.27
2023-04-17T11:42:46.217Z,1.67
2023-04-17T11:43:51.128Z,1.30
2023-04-17T11:44:53.377Z,1.10
2023-04-17T11:45:57.633Z,0.93
2023-04-17T11:47:00.100Z,1.67
2023-04-17T11:48:03.665Z,1.20
2023-04-17T11:49:08.894Z,1.20
2023-04-17T11:50:11.367Z,1.10
2023-04-17T11:51:18.732Z,1.20
2023-04-17T11:52:21.031Z,1.20
2023-04-17T11:53:23.788Z,1.23
2023-04-17T11:54:30.618Z,1.20
2023-04-17T11:55:34.456Z,1.03
2023-04-17T11:56:36.987Z,1.20
2023-04-17T11:57:45.536Z,1.00
2023-04-17T11:58:47.849Z,1.40
2023-04-17T11:59:50.122Z,1.50
2023-04-17T12:01:06.859Z,1.50
2023-04-17T12:02:09.681Z,1.60
2023-04-17T12:03:32.778Z,1.40
2023-04-17T12:04:36.600Z,1.40
2023-04-17T12:05:39.208Z,1.50
2023-04-17T12:06:41.439Z,1.30
2023-04-17T12:07:43.730Z,1.40
2023-04-17T12:08:54.179Z,1.30
2023-04-17T12:09:57.670Z,1.43
2023-04-17T12:11:00.311Z,1.60
2023-04-17T12:12:06.444Z,1.53
2023-04-17T12:13:10.294Z,1.90
2023-04-17T12:14:12.863Z,1.90
2023-04-17T12:15:15.593Z,1.47
2023-04-17T12:16:18.009Z,1.60
2023-04-17T12:17:21.250Z,1.50
2023-04-17T12:18:23.494Z,1.83
2023-04-17T12:19:27.235Z,1.90
2023-04-17T12:20:29.614Z,1.50
2023-04-17T12:21:31.886Z,1.93
2023-04-17T12:22:34.502Z,1.83
2023-04-17T12:23:36.811Z,1.70
2023-04-17T12:24:39.085Z,1.40
2023-04-17T12:25:41.368Z,1.50
2023-04-17T12:26:47.879Z,1.40
2023-04-17T12:27:50.159Z,1.60
2023-04-17T12:28:52.766Z,1.40
2023-04-17T12:29:54.999Z,1.40
2023-04-17T12:30:57.357Z,1.20
2023-04-17T12:31:59.813Z,1.40
2023-04-17T12:33:02.876Z,1.60
2023-04-17T12:34:05.412Z,1.50
2023-04-17T12:35:07.876Z,1.30
2023-04-17T12:36:10.764Z,1.43
2023-04-17T12:37:13.040Z,1.67
2023-04-17T12:38:15.541Z,1.60
2023-04-17T12:39:18.552Z,1.27
2023-04-17T12:40:24.505Z,1.20
2023-04-17T12:41:27.285Z,1.53
2023-04-17T12:42:33.605Z,1.37
2023-04-17T12:43:38.457Z,1.60
2023-04-17T12:44:40.875Z,1.40
2023-04-17T12:45:45.458Z,1.00
2023-04-17T12:46:47.921Z,1.30
2023-04-17T12:47:50.304Z,1.70
2023-04-17T12:48:58.366Z,1.50
2023-04-17T12:50:00.788Z,1.20
2023-04-17T12:51:03.050Z,1.27
2023-04-17T12:52:05.323Z,1.50
2023-04-17T12:53:08.441Z,1.37
2023-04-17T12:54:11.108Z,1.33
2023-04-17T12:55:13.667Z,1.30
2023-04-17T12:56:16.002Z,1.30
2023-04-17T12:57:18.294Z,1.13
2023-04-17T12:58:20.700Z,1.33
2023-04-17T12:59:23.052Z,1.40
2023-04-17T13:00:25.617Z,1.60
2023-04-17T13:01:28.025Z,1.30
2023-04-17T13:02:30.352Z,1.60
2023-04-17T13:03:32.751Z,2.10
2023-04-17T13:04:35.399Z,1.70
2023-04-17T13:05:37.799Z,1.60
2023-04-17T13:06:40.255Z,1.17
2023-04-17T13:07:42.614Z,1.57
2023-04-17T13:08:44.867Z,1.07
2023-04-17T13:09:47.303Z,1.10
2023-04-17T13:10:49.601Z,1.20
2023-04-17T13:11:51.842Z,1.10
2023-04-17T13:12:54.134Z,1.20
2023-04-17T13:13:56.457Z,1.17
2023-04-17T13:14:58.932Z,1.20
2023-04-17T13:16:01.317Z,1.07
2023-04-17T13:17:04.459Z,1.10
2023-04-17T13:18:08.082Z,1.17
2023-04-17T13:19:10.594Z,1.20
2023-04-17T13:20:13.288Z,1.00
2023-04-17T13:21:15.654Z,1.17
2023-04-17T13:22:18.267Z,1.00
2023-04-17T13:23:20.489Z,0.90
2023-04-17T13:24:22.757Z,1.40
2023-04-17T13:25:25.146Z,1.30
2023-04-17T13:26:27.378Z,1.40
2023-04-17T13:27:29.875Z,1.13
2023-04-17T13:28:32.271Z,1.20
2023-04-17T13:29:34.617Z,0.90
2023-04-17T13:30:37.262Z,0.90
2023-04-17T13:31:39.872Z,1.40
2023-04-17T13:32:43.140Z,0.97
2023-04-17T13:33:45.550Z,1.20
2023-04-17T13:34:48.004Z,1.10
2023-04-17T13:35:52.696Z,1.20
2023-04-17T13:36:58.389Z,1.30
2023-04-17T13:38:02.857Z,1.23
2023-04-17T13:39:09.546Z,1.00
2023-04-17T13:40:12.012Z,1.30
2023-04-17T13:41:14.224Z,1.17
2023-04-17T13:42:18.804Z,1.10
2023-04-17T13:43:21.083Z,1.10
2023-04-17T13:44:23.837Z,1.30
2023-04-17T13:45:26.073Z,1.30
2023-04-17T13:46:29.314Z,1.23
2023-04-17T13:47:31.680Z,1.30
2023-04-17T13:48:33.960Z,1.20
2023-04-17T13:49:36.247Z,1.10
2023-04-17T13:50:38.673Z,1.33
2023-04-17T13:51:40.988Z,1.27
2023-04-17T13:52:43.211Z,1.20
2023-04-17T13:53:45.600Z,1.33
2023-04-17T13:54:48.249Z,1.27
2023-04-17T13:55:51.144Z,1.30
2023-04-17T13:56:54.425Z,1.20
2023-04-17T13:57:57.336Z,1.00
2023-04-17T13:58:59.613Z,1.20
2023-04-17T14:00:01.899Z,1.10
2023-04-17T14:01:04.736Z,1.00
2023-04-17T14:02:07.624Z,1.10
2023-04-17T14:03:10.010Z,1.50
2023-04-17T14:04:12.936Z,1.00
2023-04-17T14:05:15.598Z,1.07
2023-04-17T14:06:18.093Z,1.30
2023-04-17T14:07:20.345Z,1.13
2023-04-17T14:08:22.584Z,1.10
2023-04-17T14:09:24.942Z,1.20